createdAt,value
2018-07-31T00:00:44.623Z,12.10
2018-07-31T00:03:12.820Z,10.90
2018-07-31T00:05:40.998Z,11.10
2018-07-31T00:08:09.219Z,9.93
2018-07-31T00:10:37.433Z,9.87
2018-07-31T00:13:05.648Z,10.20
2018-07-31T00:15:33.909Z,10.30
2018-07-31T00:18:02.119Z,10.77
2018-07-31T00:20:30.312Z,10.77
2018-07-31T00:22:58.490Z,8.93
2018-07-31T00:25:26.631Z,9.97
2018-07-31T00:27:54.812Z,10.30
2018-07-31T00:30:22.989Z,10.53
2018-07-31T00:32:51.193Z,10.13
2018-07-31T00:35:19.359Z,9.50
2018-07-31T00:37:47.523Z,10.00
2018-07-31T00:40:15.709Z,9.47
2018-07-31T00:42:43.883Z,9.80
2018-07-31T00:45:12.130Z,9.87
2018-07-31T00:47:40.344Z,9.80
2018-07-31T00:50:08.571Z,9.50
2018-07-31T00:52:36.790Z,9.80
2018-07-31T00:55:04.976Z,9.60
2018-07-31T00:57:33.183Z,9.37
2018-07-31T01:00:01.390Z,9.47
2018-07-31T01:02:29.615Z,10.03
2018-07-31T01:04:57.823Z,8.40
2018-07-31T01:07:25.996Z,9.50
2018-07-31T01:09:54.197Z,9.73
2018-07-31T01:12:22.439Z,8.87
2018-07-31T01:14:50.640Z,10.00
2018-07-31T01:17:18.841Z,9.30
2018-07-31T01:19:47.047Z,10.23
2018-07-31T01:22:15.252Z,9.87
2018-07-31T01:24:43.485Z,10.33
2018-07-31T01:27:11.726Z,9.80
2018-07-31T01:29:39.897Z,9.77
2018-07-31T01:32:08.108Z,10.00
2018-07-31T01:34:36.296Z,8.90
2018-07-31T01:37:04.504Z,9.17
2018-07-31T01:39:32.694Z,9.67
2018-07-31T01:42:00.882Z,9.27
2018-07-31T01:44:29.108Z,9.53
2018-07-31T01:46:57.314Z,9.30
2018-07-31T01:49:25.548Z,9.47
2018-07-31T01:51:53.767Z,9.07
2018-07-31T01:54:21.946Z,8.87
2018-07-31T01:56:50.101Z,9.70
2018-07-31T01:59:18.294Z,7.90
2018-07-31T02:01:46.535Z,9.73
2018-07-31T02:04:14.748Z,8.83
2018-07-31T02:06:42.959Z,9.03
2018-07-31T02:09:11.138Z,9.67
2018-07-31T02:11:39.318Z,9.60
2018-07-31T02:14:07.492Z,9.50
2018-07-31T02:16:35.714Z,8.90
2018-07-31T02:19:03.942Z,9.43
2018-07-31T02:21:32.121Z,8.80
2018-07-31T02:24:00.374Z,8.43
2018-07-31T02:26:28.591Z,9.80
2018-07-31T02:28:56.809Z,8.53
2018-07-31T02:31:25.008Z,9.10
2018-07-31T02:33:53.218Z,8.70
2018-07-31T02:36:21.468Z,9.10
2018-07-31T02:38:49.730Z,9.57
2018-07-31T02:41:17.926Z,8.73
2018-07-31T02:43:46.136Z,9.77
2018-07-31T02:46:14.345Z,10.13
2018-07-31T02:48:42.540Z,9.17
2018-07-31T02:51:10.750Z,9.70
2018-07-31T02:53:38.917Z,10.30
2018-07-31T02:56:07.127Z,9.17
2018-07-31T02:58:35.334Z,9.57
2018-07-31T03:01:03.559Z,9.87
2018-07-31T03:03:31.741Z,10.90
2018-07-31T03:05:59.920Z,9.40
2018-07-31T03:08:28.088Z,10.47
2018-07-31T03:10:56.266Z,10.43
2018-07-31T03:13:24.439Z,10.40
2018-07-31T03:15:52.690Z,10.07
2018-07-31T03:18:20.861Z,9.97
2018-07-31T03:20:49.039Z,9.77
2018-07-31T03:23:17.215Z,10.50
2018-07-31T03:25:45.418Z,10.23
2018-07-31T03:28:13.697Z,9.70
2018-07-31T03:30:41.878Z,9.63
2018-07-31T03:33:10.096Z,10.37
2018-07-31T03:35:38.352Z,9.70
2018-07-31T03:38:06.584Z,9.73
2018-07-31T03:40:34.798Z,10.60
2018-07-31T03:43:03.000Z,10.37
2018-07-31T03:45:31.168Z,9.60
2018-07-31T03:47:59.317Z,9.87
2018-07-31T03:50:27.529Z,9.63
2018-07-31T03:52:55.698Z,9.20
2018-07-31T03:55:24.043Z,10.10
2018-07-31T03:57:52.164Z,10.50
2018-07-31T04:00:20.368Z,9.63
2018-07-31T04:02:48.559Z,10.30
2018-07-31T04:05:16.762Z,10.57
2018-07-31T04:07:44.906Z,9.50
2018-07-31T04:10:13.076Z,10.27
2018-07-31T04:12:41.241Z,10.10
2018-07-31T04:15:09.470Z,10.87
2018-07-31T04:17:37.667Z,10.77
2018-07-31T04:20:05.983Z,9.67
2018-07-31T04:22:34.343Z,9.77
2018-07-31T04:25:02.564Z,9.43
2018-07-31T04:27:30.759Z,10.20
2018-07-31T04:29:58.953Z,9.50
2018-07-31T04:32:27.192Z,9.40
2018-07-31T04:34:55.332Z,10.00
2018-07-31T04:37:23.550Z,10.10
2018-07-31T04:39:51.734Z,9.70
2018-07-31T04:42:19.983Z,9.40
2018-07-31T04:44:48.159Z,9.10
2018-07-31T04:47:16.399Z,9.30
2018-07-31T04:49:44.578Z,9.50
2018-07-31T04:52:23.484Z,9.77
2018-07-31T04:54:51.771Z,9.83
2018-07-31T04:57:20.000Z,10.00
2018-07-31T04:59:48.197Z,10.20
2018-07-31T05:02:16.402Z,10.00
2018-07-31T05:04:44.595Z,9.67
2018-07-31T05:07:12.832Z,9.80
2018-07-31T05:09:41.008Z,8.70
2018-07-31T05:12:09.279Z,9.20
2018-07-31T05:14:37.456Z,9.40
2018-07-31T05:17:05.647Z,9.00
2018-07-31T05:19:33.792Z,9.30
2018-07-31T05:22:02.113Z,9.80
2018-07-31T05:24:30.255Z,9.43
2018-07-31T05:26:58.474Z,8.57
2018-07-31T05:29:26.669Z,10.30
2018-07-31T05:31:54.951Z,10.00
2018-07-31T05:34:23.156Z,9.33
2018-07-31T05:36:51.355Z,9.30
2018-07-31T05:39:19.600Z,9.57
2018-07-31T05:41:47.811Z,9.50
2018-07-31T05:44:16.066Z,8.87
2018-07-31T05:46:44.292Z,9.30
2018-07-31T05:49:12.444Z,9.20
2018-07-31T05:51:40.620Z,9.87
2018-07-31T05:54:08.796Z,10.13
2018-07-31T05:56:37.085Z,9.93
2018-07-31T05:59:05.299Z,10.27
2018-07-31T06:01:47.958Z,9.70
2018-07-31T06:04:16.141Z,10.13
2018-07-31T06:06:44.405Z,9.50
2018-07-31T06:09:12.604Z,9.40
2018-07-31T06:11:40.840Z,9.70
2018-07-31T06:14:09.499Z,8.93
2018-07-31T06:16:38.209Z,10.67
2018-07-31T06:19:06.456Z,10.23
2018-07-31T06:21:34.756Z,10.60
2018-07-31T06:24:03.012Z,9.40
2018-07-31T06:26:31.202Z,9.97
2018-07-31T06:28:59.411Z,10.20
2018-07-31T06:31:27.631Z,9.77
2018-07-31T06:33:55.895Z,9.43
2018-07-31T06:36:24.559Z,9.03
2018-07-31T06:38:52.835Z,9.23
2018-07-31T06:41:21.078Z,8.83
2018-07-31T06:43:50.108Z,10.10
2018-07-31T06:46:18.277Z,9.93
2018-07-31T06:48:46.522Z,9.50
2018-07-31T06:51:14.809Z,9.50
2018-07-31T06:53:43.064Z,9.73
2018-07-31T06:56:11.278Z,10.30
2018-07-31T06:58:39.591Z,10.00
2018-07-31T07:01:08.157Z,8.93
2018-07-31T07:03:36.420Z,9.60
2018-07-31T07:06:04.778Z,9.90
2018-07-31T07:08:32.995Z,10.30
2018-07-31T07:11:01.204Z,9.40
2018-07-31T07:13:29.472Z,9.60
2018-07-31T07:15:58.316Z,9.47
2018-07-31T07:18:26.575Z,9.77
2018-07-31T07:20:54.808Z,9.00
2018-07-31T07:23:23.010Z,9.63
2018-07-31T07:25:51.248Z,10.03
2018-07-31T07:28:19.496Z,9.50
2018-07-31T07:30:47.712Z,9.07
2018-07-31T07:33:15.890Z,9.17
2018-07-31T07:35:44.722Z,9.27
2018-07-31T07:38:12.932Z,9.07
2018-07-31T07:40:41.130Z,8.50
2018-07-31T07:43:10.040Z,8.47
2018-07-31T07:45:38.234Z,9.33
2018-07-31T07:48:06.474Z,8.60
2018-07-31T07:50:35.140Z,8.37
2018-07-31T07:53:03.320Z,8.87
2018-07-31T07:55:31.539Z,9.13
2018-07-31T07:57:59.710Z,9.60
2018-07-31T08:00:28.435Z,10.23
2018-07-31T08:02:56.675Z,9.10
2018-07-31T08:05:24.903Z,9.13
2018-07-31T08:07:53.120Z,9.43
2018-07-31T08:10:21.338Z,10.60
2018-07-31T08:12:49.564Z,9.87
2018-07-31T08:15:17.905Z,9.83
2018-07-31T08:17:46.147Z,9.47
2018-07-31T08:20:14.396Z,10.20
2018-07-31T08:22:42.605Z,9.40
2018-07-31T08:25:10.830Z,9.67
2018-07-31T08:27:39.003Z,8.80
2018-07-31T08:30:07.253Z,11.00
2018-07-31T08:32:35.487Z,9.80
2018-07-31T08:35:03.732Z,10.37
2018-07-31T08:37:31.949Z,9.30
2018-07-31T08:40:00.146Z,9.97
2018-07-31T08:42:28.321Z,10.30
2018-07-31T08:44:56.575Z,10.83
2018-07-31T08:47:24.855Z,10.37
2018-07-31T08:49:53.080Z,10.33
2018-07-31T08:52:21.248Z,9.83
2018-07-31T08:54:49.564Z,9.93
2018-07-31T08:57:17.784Z,10.43
2018-07-31T08:59:46.025Z,9.40
2018-07-31T09:02:14.200Z,9.57
2018-07-31T09:04:42.388Z,10.50
2018-07-31T09:07:10.528Z,10.03
2018-07-31T09:09:38.691Z,9.40
2018-07-31T09:12:07.093Z,10.30
2018-07-31T09:14:35.248Z,9.33
2018-07-31T09:17:03.412Z,9.60
2018-07-31T09:19:31.640Z,10.43
2018-07-31T09:21:59.846Z,9.43
2018-07-31T09:24:28.112Z,9.87
2018-07-31T09:26:56.224Z,9.90
2018-07-31T09:29:24.419Z,10.33
2018-07-31T09:31:52.626Z,8.90
2018-07-31T09:34:20.796Z,9.63
2018-07-31T09:36:48.972Z,9.50
2018-07-31T09:39:17.161Z,9.40
2018-07-31T09:41:45.295Z,10.00
2018-07-31T09:44:13.488Z,9.60
2018-07-31T09:46:41.654Z,9.30
2018-07-31T09:49:09.811Z,9.60
2018-07-31T09:51:40.332Z,10.37
2018-07-31T09:54:08.544Z,9.90
2018-07-31T09:56:36.732Z,10.00
2018-07-31T09:59:04.971Z,9.07
2018-07-31T10:01:33.146Z,9.83
2018-07-31T10:04:01.273Z,10.67
2018-07-31T10:06:29.442Z,10.33
2018-07-31T10:08:57.599Z,10.30
2018-07-31T10:11:25.757Z,10.27
2018-07-31T10:13:53.921Z,10.60
2018-07-31T10:16:22.120Z,9.87
2018-07-31T10:18:50.389Z,9.40
2018-07-31T10:21:18.568Z,10.13
2018-07-31T10:23:46.729Z,9.37
2018-07-31T10:26:14.897Z,9.13
2018-07-31T10:28:43.064Z,10.50
2018-07-31T10:31:11.204Z,8.90
2018-07-31T10:33:39.363Z,10.00
2018-07-31T10:36:07.552Z,9.13
2018-07-31T10:38:35.706Z,9.13
2018-07-31T10:41:03.904Z,8.80
2018-07-31T10:43:32.095Z,10.10
2018-07-31T10:46:00.246Z,10.10
2018-07-31T10:48:28.400Z,9.20
2018-07-31T10:50:56.528Z,10.10
2018-07-31T10:53:24.941Z,9.80
2018-07-31T10:55:53.092Z,10.33
2018-07-31T10:58:21.337Z,9.83
2018-07-31T11:00:49.481Z,8.50
2018-07-31T11:03:17.688Z,8.90
2018-07-31T11:05:45.858Z,9.63
2018-07-31T11:08:14.082Z,8.07
2018-07-31T11:10:42.270Z,9.20
2018-07-31T11:13:10.466Z,8.60
2018-07-31T11:15:38.635Z,8.40
2018-07-31T11:18:06.893Z,8.80
2018-07-31T11:20:35.079Z,9.67
2018-07-31T11:23:03.293Z,8.90
2018-07-31T11:25:31.496Z,8.43
2018-07-31T11:27:59.672Z,8.57
2018-07-31T11:30:27.864Z,9.40
2018-07-31T11:32:56.086Z,8.70
2018-07-31T11:35:24.248Z,9.13
2018-07-31T11:37:52.450Z,8.13
2018-07-31T11:40:20.603Z,8.03
2018-07-31T11:42:48.797Z,7.90
2018-07-31T11:45:16.944Z,8.13
2018-07-31T11:47:45.328Z,8.33
2018-07-31T11:50:13.547Z,8.40
2018-07-31T11:52:41.728Z,8.47
2018-07-31T11:55:09.939Z,7.37
2018-07-31T11:57:38.154Z,7.87
2018-07-31T12:00:07.530Z,8.23
2018-07-31T12:02:35.745Z,8.00
2018-07-31T12:05:04.067Z,9.40
2018-07-31T12:07:32.256Z,8.93
2018-07-31T12:10:00.445Z,8.73
2018-07-31T12:12:28.806Z,9.50
2018-07-31T12:14:57.051Z,9.53
2018-07-31T12:17:25.258Z,9.60
2018-07-31T12:19:53.439Z,8.33
2018-07-31T12:22:21.642Z,9.17
2018-07-31T12:24:49.929Z,8.83
2018-07-31T12:27:18.137Z,8.83
2018-07-31T12:29:46.338Z,9.70
2018-07-31T12:32:14.556Z,8.83
2018-07-31T12:34:42.759Z,8.80
2018-07-31T12:37:11.100Z,8.30
2018-07-31T12:39:39.294Z,9.77
2018-07-31T12:42:07.458Z,9.20
2018-07-31T12:44:35.658Z,9.00
2018-07-31T12:47:03.916Z,8.60
2018-07-31T12:49:32.124Z,8.73
2018-07-31T12:52:00.379Z,8.33
2018-07-31T12:54:28.567Z,9.60
2018-07-31T12:56:56.800Z,9.80
2018-07-31T12:59:25.068Z,8.93
2018-07-31T13:01:53.262Z,9.70
2018-07-31T13:04:21.527Z,10.37
2018-07-31T13:06:49.746Z,9.57
2018-07-31T13:09:17.987Z,9.40
2018-07-31T13:11:46.161Z,10.10
2018-07-31T13:14:14.386Z,8.80
2018-07-31T13:16:42.618Z,9.40
2018-07-31T13:19:10.836Z,8.80
2018-07-31T13:21:39.017Z,8.40
2018-07-31T13:24:07.282Z,8.60
2018-07-31T13:26:35.576Z,8.43
2018-07-31T13:29:03.822Z,8.60
2018-07-31T13:31:32.015Z,7.67
2018-07-31T13:34:00.248Z,8.80
2018-07-31T13:36:28.509Z,8.30
2018-07-31T13:38:56.719Z,9.00
2018-07-31T13:41:24.959Z,9.20
2018-07-31T13:43:53.276Z,8.70
2018-07-31T13:46:21.499Z,8.93
2018-07-31T13:48:49.805Z,8.73
2018-07-31T13:51:18.073Z,9.00
2018-07-31T13:53:46.425Z,8.70
2018-07-31T13:56:14.610Z,9.03
2018-07-31T13:58:42.860Z,8.90
2018-07-31T14:01:11.059Z,8.57
2018-07-31T14:03:39.249Z,8.13
2018-07-31T14:06:07.507Z,8.40
2018-07-31T14:08:35.768Z,8.80
2018-07-31T14:11:04.068Z,8.60
2018-07-31T14:13:32.390Z,8.93
2018-07-31T14:16:00.764Z,8.50
2018-07-31T14:18:28.952Z,9.20
2018-07-31T14:20:57.304Z,8.60
2018-07-31T14:23:25.525Z,8.90
2018-07-31T14:25:53.766Z,9.40
2018-07-31T14:28:22.061Z,9.20
2018-07-31T14:30:50.389Z,9.90
2018-07-31T14:33:18.609Z,9.33
2018-07-31T14:35:46.868Z,8.97
2018-07-31T14:38:15.120Z,9.43
2018-07-31T14:40:43.430Z,9.30
2018-07-31T14:43:11.809Z,9.30
2018-07-31T14:45:40.020Z,8.60
2018-07-31T14:48:08.277Z,9.63
2018-07-31T14:50:36.540Z,8.20
2018-07-31T14:53:04.808Z,8.70
2018-07-31T14:55:33.047Z,9.63
2018-07-31T14:58:01.273Z,9.00
2018-07-31T15:00:29.536Z,8.93
2018-07-31T15:02:57.778Z,9.47
2018-07-31T15:05:26.072Z,9.37
2018-07-31T15:07:54.296Z,8.70
2018-07-31T15:10:22.504Z,9.03
2018-07-31T15:12:50.690Z,9.50
2018-07-31T15:15:18.883Z,9.07
2018-07-31T15:17:47.089Z,9.20
2018-07-31T15:20:15.347Z,9.30
2018-07-31T15:22:43.604Z,8.97
2018-07-31T15:25:11.855Z,9.13
2018-07-31T15:27:40.082Z,9.20
2018-07-31T15:30:08.352Z,8.90
2018-07-31T15:32:36.611Z,8.80
2018-07-31T15:35:04.963Z,9.00
2018-07-31T15:37:33.564Z,9.00
2018-07-31T15:40:01.772Z,8.93
2018-07-31T15:42:29.985Z,8.40
2018-07-31T15:44:58.171Z,9.07
2018-07-31T15:47:26.499Z,8.57
2018-07-31T15:52:53.710Z,8.47
2018-07-31T15:55:21.933Z,8.43
2018-07-31T15:57:50.182Z,9.27
2018-07-31T16:00:18.426Z,8.50
2018-07-31T16:02:46.651Z,9.43
2018-07-31T16:05:14.909Z,8.80
2018-07-31T16:07:43.170Z,9.23
2018-07-31T16:10:11.412Z,9.00
2018-07-31T16:12:39.680Z,9.40
2018-07-31T16:15:07.920Z,9.00
2018-07-31T16:17:36.144Z,10.70
2018-07-31T16:20:04.516Z,10.03
2018-07-31T16:22:32.720Z,9.70
2018-07-31T16:25:00.939Z,9.47
2018-07-31T16:27:29.173Z,8.93
2018-07-31T16:29:57.547Z,9.20
2018-07-31T16:32:25.775Z,8.97
2018-07-31T16:34:53.965Z,7.90
2018-07-31T16:37:22.132Z,8.50
2018-07-31T16:39:50.432Z,7.97
2018-07-31T16:42:18.662Z,8.90
2018-07-31T16:44:46.846Z,8.67
2018-07-31T16:47:15.088Z,9.00
2018-07-31T16:49:43.317Z,8.40
2018-07-31T16:52:11.580Z,9.13
2018-07-31T16:54:39.796Z,9.07
2018-07-31T16:57:08.063Z,9.37
2018-07-31T16:59:36.310Z,9.60
2018-07-31T17:02:04.582Z,9.50
2018-07-31T17:04:32.789Z,8.60
2018-07-31T17:07:01.023Z,8.70
2018-07-31T17:09:29.307Z,8.30
2018-07-31T17:11:57.543Z,8.30
2018-07-31T17:14:25.765Z,8.40
2018-07-31T17:16:54.023Z,8.83
2018-07-31T17:19:24.613Z,9.60
2018-07-31T17:21:52.871Z,8.20
2018-07-31T17:24:21.100Z,7.80
2018-07-31T17:26:49.316Z,8.37
2018-07-31T17:29:17.620Z,8.90
2018-07-31T17:31:45.889Z,9.87
2018-07-31T17:34:14.081Z,9.80
2018-07-31T17:36:42.315Z,10.50
2018-07-31T17:39:11.423Z,9.97
2018-07-31T17:41:40.148Z,9.93
2018-07-31T17:44:08.728Z,9.50
2018-07-31T17:46:37.000Z,9.30
2018-07-31T17:49:05.333Z,9.30
2018-07-31T17:51:33.559Z,10.30
2018-07-31T17:54:01.793Z,9.80
2018-07-31T17:56:30.003Z,9.67
2018-07-31T17:58:58.201Z,10.10
2018-07-31T18:01:26.407Z,10.90
2018-07-31T18:03:54.649Z,10.17
2018-07-31T18:06:22.853Z,10.43
2018-07-31T18:08:51.152Z,10.90
2018-07-31T18:11:19.360Z,10.50
2018-07-31T18:13:47.585Z,9.80
2018-07-31T18:16:15.744Z,9.50
2018-07-31T18:18:43.900Z,10.17
2018-07-31T18:21:12.132Z,10.37
2018-07-31T18:23:40.522Z,10.07
2018-07-31T18:26:08.727Z,9.80
2018-07-31T18:28:36.923Z,9.87
2018-07-31T18:31:05.133Z,9.70
2018-07-31T18:33:33.330Z,10.20
2018-07-31T18:36:01.548Z,9.70
2018-07-31T18:38:29.730Z,10.00
2018-07-31T18:40:57.972Z,9.77
2018-07-31T18:43:26.188Z,9.27
2018-07-31T18:45:54.417Z,9.23
2018-07-31T18:48:22.628Z,9.97
2018-07-31T18:50:50.893Z,9.37
2018-07-31T18:53:19.195Z,10.33
2018-07-31T18:55:47.467Z,10.23
2018-07-31T18:58:15.701Z,9.60
2018-07-31T19:00:43.935Z,9.23
2018-07-31T19:03:12.182Z,10.30
2018-07-31T19:05:40.365Z,10.37
2018-07-31T19:08:08.589Z,10.00
2018-07-31T19:10:36.848Z,10.33
2018-07-31T19:13:05.113Z,10.73
2018-07-31T19:15:33.281Z,9.13
2018-07-31T19:18:01.452Z,9.43
2018-07-31T19:20:29.616Z,9.40
2018-07-31T19:22:57.859Z,9.50
2018-07-31T19:25:26.009Z,9.70
2018-07-31T19:27:54.232Z,9.93
2018-07-31T19:30:22.357Z,8.63
2018-07-31T19:32:50.579Z,10.07
2018-07-31T19:35:31.748Z,8.67
2018-07-31T19:38:00.027Z,9.00
2018-07-31T19:40:28.249Z,9.57
2018-07-31T19:42:56.462Z,9.60
2018-07-31T19:45:24.655Z,9.90
2018-07-31T19:47:53.013Z,10.27
2018-07-31T19:50:21.681Z,9.47
2018-07-31T19:52:49.892Z,10.23
2018-07-31T19:55:18.097Z,8.97
2018-07-31T19:57:46.272Z,9.30
2018-07-31T20:00:14.492Z,10.10
2018-07-31T20:02:42.733Z,8.87
2018-07-31T20:05:10.976Z,9.20
2018-07-31T20:07:39.485Z,10.00
2018-07-31T20:10:07.682Z,10.57
2018-07-31T20:12:35.883Z,11.03
2018-07-31T20:15:04.120Z,10.10
2018-07-31T20:17:32.300Z,11.33
2018-07-31T20:20:00.593Z,10.13
2018-07-31T20:22:28.766Z,9.60
2018-07-31T20:24:56.995Z,10.67
2018-07-31T20:30:20.894Z,10.20
2018-07-31T20:32:49.109Z,10.60
2018-07-31T20:35:17.313Z,10.40
2018-07-31T20:37:45.526Z,11.03
2018-07-31T20:40:13.733Z,10.87
2018-07-31T20:42:41.966Z,9.70
2018-07-31T20:45:10.191Z,10.60
2018-07-31T20:47:38.396Z,9.33
2018-07-31T20:50:06.702Z,9.70
2018-07-31T20:52:34.912Z,9.83
2018-07-31T20:55:03.141Z,10.37
2018-07-31T20:57:31.312Z,9.10
2018-07-31T20:59:59.545Z,8.77
2018-07-31T21:02:27.748Z,9.87
2018-07-31T21:04:55.970Z,9.70
2018-07-31T21:07:24.180Z,9.63
2018-07-31T21:09:52.388Z,11.27
2018-07-31T21:12:20.568Z,10.00
2018-07-31T21:14:48.777Z,9.87
2018-07-31T21:17:16.929Z,11.20
2018-07-31T21:19:45.317Z,11.60
2018-07-31T21:22:13.660Z,11.83
2018-07-31T21:30:22.735Z,10.10
2018-07-31T21:32:50.963Z,9.97
2018-07-31T21:35:19.117Z,11.37
2018-07-31T21:37:47.300Z,10.63
2018-07-31T21:40:15.484Z,10.80
2018-07-31T21:42:43.670Z,9.87
2018-07-31T21:45:11.856Z,9.70
2018-07-31T21:47:40.945Z,10.20
2018-07-31T21:50:09.085Z,10.20
2018-07-31T21:52:37.295Z,9.37
2018-07-31T21:55:05.490Z,10.07
2018-07-31T21:57:33.621Z,9.77
2018-07-31T22:00:01.855Z,9.67
2018-07-31T22:02:30.045Z,9.53
2018-07-31T22:04:58.218Z,8.67
2018-07-31T22:07:26.395Z,9.60
2018-07-31T22:09:54.613Z,9.40
2018-07-31T22:12:22.765Z,9.23
2018-07-31T22:14:50.954Z,9.80
2018-07-31T22:17:19.104Z,9.67
2018-07-31T22:19:47.237Z,8.80
2018-07-31T22:22:15.439Z,9.40
2018-07-31T22:24:43.692Z,8.70
2018-07-31T22:27:11.848Z,9.43
2018-07-31T22:29:40.061Z,10.03
2018-07-31T22:32:08.270Z,10.80
2018-07-31T22:34:36.411Z,10.23
2018-07-31T22:37:04.594Z,9.63
2018-07-31T22:39:32.742Z,10.03
2018-07-31T22:42:00.948Z,9.80
2018-07-31T22:44:29.152Z,10.73
2018-07-31T22:46:57.329Z,10.30
2018-07-31T22:49:25.516Z,11.47
2018-07-31T22:51:53.739Z,10.37
2018-07-31T22:54:21.959Z,11.17
2018-07-31T22:56:50.206Z,10.63
2018-07-31T22:59:18.371Z,11.20
2018-07-31T23:01:46.547Z,11.80
2018-07-31T23:04:14.857Z,10.50
2018-07-31T23:06:43.060Z,11.03
2018-07-31T23:09:11.922Z,10.70
2018-07-31T23:11:40.123Z,11.40
2018-07-31T23:14:08.441Z,11.20
2018-07-31T23:16:37.237Z,11.60
2018-07-31T23:19:05.536Z,11.93
2018-07-31T23:21:33.717Z,11.63
2018-07-31T23:24:01.924Z,10.83
2018-07-31T23:26:30.141Z,11.20
2018-07-31T23:28:58.311Z,10.33
2018-07-31T23:31:26.513Z,11.20
2018-07-31T23:33:54.729Z,11.13
2018-07-31T23:36:22.932Z,10.87
2018-07-31T23:38:51.089Z,10.53
2018-07-31T23:41:19.297Z,11.00
2018-07-31T23:43:47.480Z,12.00
2018-07-31T23:46:15.683Z,11.43
2018-07-31T23:48:43.881Z,10.97
2018-07-31T23:51:12.053Z,11.47
2018-07-31T23:53:40.238Z,11.97
2018-07-31T23:56:08.480Z,11.10
2018-07-31T23:58:36.678Z,11.17
